Time;durP1;ratioP1;P1;durP2;ratioP2;P2;SDS_P1;SDS_P2;PMS_P1;PMS_P2;Temp;Humidity;BMP_temperature;BMP_pressure;BME280_temperature;BME280_humidity;BME280_pressure;Samples;Min_cycle;Max_cycle;Signal;HPM_P1;HPM_P2
2023/03/24 00:02:19;;;;;;;37.90;24.60;;;;;;;10.37;85.09;97539.56;108967;1255;58955;-78
2023/03/24 00:04:51;;;;;;;35.30;18.80;;;;;;;10.34;84.62;97542.36;109091;1257;58941;-79
2023/03/24 00:07:18;;;;;;;30.60;18.00;;;;;;;10.31;82.14;97540.89;109105;1256;59429;-79
2023/03/24 00:09:44;;;;;;;34.50;18.80;;;;;;;10.27;81.34;97539.64;108956;1256;58937;-79
2023/03/24 00:12:12;;;;;;;34.50;19.90;;;;;;;10.19;83.45;97538.52;109097;1256;73751;-76
2023/03/24 00:14:39;;;;;;;34.40;20.80;;;;;;;10.15;82.52;97547.75;109125;1255;72241;-79
2023/03/24 00:17:08;;;;;;;40.00;25.40;;;;;;;10.13;84.85;97544.26;109097;1255;71387;-77
2023/03/24 00:19:38;;;;;;;42.50;23.80;;;;;;;10.11;84.37;97547.16;109137;1255;59315;-78
2023/03/24 00:22:05;;;;;;;53.70;28.60;;;;;;;10.11;83.26;97555.17;108952;1256;59212;-77
2023/03/24 00:24:32;;;;;;;49.20;27.50;;;;;;;10.12;83.81;97550.28;109137;1255;74382;-79
2023/03/24 00:26:59;;;;;;;47.70;27.60;;;;;;;10.16;83.27;97552.02;109006;1256;59738;-77
2023/03/24 00:29:26;;;;;;;45.60;25.60;;;;;;;10.21;82.54;97547.32;109068;1256;72744;-79
2023/03/24 00:31:52;;;;;;;47.50;25.10;;;;;;;10.26;82.31;97546.48;109093;1255;59101;-78
2023/03/24 00:34:21;;;;;;;45.00;25.30;;;;;;;10.30;82.36;97547.17;109085;1256;58827;-77
2023/03/24 00:36:48;;;;;;;;;;;;;;;10.34;82.24;97545.19;108982;1256;74899;-77
2023/03/24 00:39:17;;;;;;;74.90;43.60;;;;;;;10.34;82.75;97540.73;108928;1256;69667;-79
2023/03/24 00:41:44;;;;;;;113.10;61.20;;;;;;;10.35;82.90;97537.92;108906;1256;72579;-79
2023/03/24 00:44:16;;;;;;;49.30;28.60;;;;;;;10.34;82.17;97534.77;108874;1255;59596;-79
2023/03/24 00:46:44;;;;;;;50.10;28.80;;;;;;;10.33;82.86;97529.75;108917;1256;60294;-78
2023/03/24 00:49:11;;;;;;;48.40;26.40;;;;;;;10.32;82.93;97524.34;109030;1256;73497;-77
2023/03/24 00:51:39;;;;;;;38.00;22.90;;;;;;;10.32;82.35;97524.99;108939;1256;72372;-79
2023/03/24 00:54:08;;;;;;;44.00;24.50;;;;;;;10.31;82.99;97521.98;109126;1256;72282;-77
2023/03/24 00:56:36;;;;;;;45.90;26.00;;;;;;;10.30;83.46;97518.10;108956;1256;59539;-79
2023/03/24 00:59:03;;;;;;;48.40;25.70;;;;;;;10.28;82.59;97517.00;108973;1256;61438;-79
2023/03/24 01:01:35;;;;;;;48.60;27.30;;;;;;;10.22;82.87;97519.04;109120;1256;74701;-77
2023/03/24 01:04:01;;;;;;;39.30;22.50;;;;;;;10.20;82.45;97516.56;108943;1256;69695;-79
2023/03/24 01:06:29;;;;;;;39.20;22.20;;;;;;;10.18;83.32;97513.13;109110;1256;73323;-77
2023/03/24 01:08:55;;;;;;;32.40;18.20;;;;;;;10.18;85.45;97509.27;109118;1255;60641;-79
2023/03/24 01:11:23;;;;;;;29.50;17.70;;;;;;;10.19;84.94;97510.58;109123;1256;59229;-79
2023/03/24 01:13:50;;;;;;;30.40;18.30;;;;;;;10.19;85.17;97505.05;109125;1256;73416;-77
2023/03/24 01:16:17;;;;;;;28.60;16.80;;;;;;;10.18;85.61;97495.91;109118;1255;70826;-77
2023/03/24 01:18:43;;;;;;;24.90;15.90;;;;;;;10.16;84.49;97496.89;109141;1256;72825;-77
2023/03/24 01:21:10;;;;;;;24.20;15.00;;;;;;;10.14;85.07;97495.45;109141;1256;58916;-79
2023/03/24 01:23:37;;;;;;;25.80;17.20;;;;;;;10.11;85.18;97489.15;109135;1256;58778;-77
2023/03/24 01:26:05;;;;;;;48.40;20.40;;;;;;;10.11;87.44;97489.55;109137;1256;75681;-79
2023/03/24 01:28:32;;;;;;;26.90;17.40;;;;;;;10.04;91.46;97486.86;109082;1260;70162;-79
2023/03/24 01:30:58;;;;;;;32.70;24.20;;;;;;;10.02;89.27;97489.33;109125;1256;71424;-77
2023/03/24 01:33:25;;;;;;;29.60;22.30;;;;;;;9.99;91.74;97488.32;109115;1256;59077;-79
2023/03/24 01:35:51;;;;;;;32.20;21.80;;;;;;;9.98;92.61;97486.55;109127;1255;59135;-78
2023/03/24 01:38:18;;;;;;;34.30;23.40;;;;;;;9.94;94.17;97487.20;109094;1260;73586;-77
2023/03/24 01:40:45;;;;;;;35.20;24.60;;;;;;;9.96;91.85;97486.85;109122;1256;70496;-77
2023/03/24 01:43:20;;;;;;;34.00;19.80;;;;;;;9.97;91.92;97485.86;108923;1256;73409;-77
2023/03/24 01:45:49;;;;;;;56.00;29.20;;;;;;;9.96;93.33;97485.83;109095;1256;58846;-79
2023/03/24 01:48:40;;;;;;;45.50;26.20;;;;;;;9.95;93.09;97483.08;109029;1256;147065;-77
2023/03/24 01:51:15;;;;;;;32.90;18.20;;;;;;;9.97;90.57;97485.00;109143;1256;74630;-79
2023/03/24 01:54:03;;;;;;;24.70;16.40;;;;;;;9.96;93.64;97481.93;108981;1256;69400;-77
2023/03/24 01:56:32;;;;;;;29.00;20.80;;;;;;;9.97;93.53;97474.59;108939;1256;72562;-79
2023/03/24 01:59:02;;;;;;;27.00;16.90;;;;;;;9.98;91.73;97473.89;109136;1256;59244;-77
2023/03/24 02:01:29;;;;;;;24.00;14.80;;;;;;;9.99;91.54;97469.21;108993;1255;59151;-78
2023/03/24 02:03:57;;;;;;;26.80;15.10;;;;;;;10.00;89.60;97463.15;109133;1256;73625;-78
2023/03/24 02:06:27;;;;;;;22.50;14.00;;;;;;;10.01;89.42;97465.20;108997;1256;71088;-77
2023/03/24 02:08:57;;;;;;;24.60;17.20;;;;;;;10.01;91.01;97457.14;109130;1256;72785;-77
2023/03/24 02:11:26;;;;;;;28.90;18.90;;;;;;;10.00;90.35;97457.09;109057;1256;60615;-77
2023/03/24 02:13:52;;;;;;;19.40;12.80;;;;;;;10.02;89.80;97456.64;109107;1256;60257;-77
2023/03/24 02:16:43;;;;;;;21.30;13.80;;;;;;;10.02;89.30;97455.50;109154;1255;59107;-79
2023/03/24 02:19:36;;;;;;;25.00;13.30;;;;;;;10.01;91.21;97454.75;109135;1256;69797;-77
2023/03/24 02:22:25;;;;;;;24.90;13.60;;;;;;;9.97;91.18;97445.11;108951;1256;72541;-79
2023/03/24 02:25:12;;;;;;;22.60;13.20;;;;;;;9.96;92.00;97439.71;109039;1256;59065;-79
2023/03/24 02:28:01;;;;;;;25.50;19.90;;;;;;;9.97;91.46;97440.87;108929;1256;60105;-77
2023/03/24 02:31:05;;;;;;;16.50;11.60;;;;;;;9.99;90.89;97449.56;108898;1256;75046;-79
2023/03/24 02:33:50;;;;;;;18.50;9.80;;;;;;;10.06;90.73;97448.95;108905;1256;71240;-79
2023/03/24 02:36:25;;;;;;;16.30;11.60;;;;;;;10.12;92.20;97449.52;108889;1256;73953;-77
2023/03/24 02:38:55;;;;;;;23.00;13.50;;;;;;;10.14;90.54;97450.46;108963;1256;59410;-77
2023/03/24 02:41:26;;;;;;;24.60;13.80;;;;;;;10.16;89.70;97447.08;109098;1256;60451;-78
2023/03/24 02:44:06;;;;;;;17.70;12.00;;;;;;;10.19;90.63;97448.31;108978;1256;73984;-77
2023/03/24 02:46:54;;;;;;;18.10;11.70;;;;;;;10.20;89.81;97447.58;108776;1258;69781;-80
2023/03/24 02:49:59;;;;;;;21.20;13.60;;;;;;;10.20;90.64;97442.81;108767;1256;70818;-78
2023/03/24 02:52:41;;;;;;;16.10;10.60;;;;;;;10.16;92.28;97440.38;108908;1255;59049;-79
2023/03/24 02:55:20;;;;;;;24.90;13.20;;;;;;;10.11;91.40;97438.33;108900;1256;58917;-76
2023/03/24 02:57:54;;;;;;;21.30;11.70;;;;;;;10.12;90.04;97435.66;109113;1256;74328;-77
2023/03/24 03:00:29;;;;;;;20.30;13.80;;;;;;;10.12;89.55;97435.12;108962;1256;70987;-79
2023/03/24 03:03:02;;;;;;;27.90;19.20;;;;;;;10.13;90.51;97434.23;108912;1256;71793;-77
2023/03/24 03:05:45;;;;;;;24.50;16.10;;;;;;;10.15;89.48;97429.92;108950;1256;59151;-78
2023/03/24 03:08:12;;;;;;;19.50;16.70;;;;;;;10.19;89.48;97428.98;108980;1255;59456;-79
2023/03/24 03:10:41;;;;;;;24.20;11.50;;;;;;;10.21;89.80;97426.61;108937;1257;74792;-77
2023/03/24 03:13:30;;;;;;;20.20;10.60;;;;;;;10.22;89.39;97422.33;108984;1256;70241;-79
2023/03/24 03:16:03;;;;;;;23.00;12.20;;;;;;;10.20;88.66;97425.23;108864;1256;72783;-77
2023/03/24 03:18:45;;;;;;;24.80;15.90;;;;;;;10.17;88.58;97420.16;108893;1256;59558;-77
2023/03/24 03:21:13;;;;;;;18.90;11.20;;;;;;;10.17;90.64;97412.31;108770;1256;61590;-77
2023/03/24 03:23:57;;;;;;;24.60;12.00;;;;;;;10.15;90.20;97412.92;108943;1257;74761;-77
2023/03/24 03:26:25;;;;;;;20.10;11.40;;;;;;;10.13;89.80;97404.71;108970;1258;68812;-77
2023/03/24 03:28:56;;;;;;;21.80;12.70;;;;;;;10.14;89.59;97410.34;109105;1256;71352;-79
2023/03/24 03:31:28;;;;;;;27.70;14.80;;;;;;;10.11;89.41;97405.08;108947;1256;59393;-78
2023/03/24 03:33:59;;;;;;;31.10;18.70;;;;;;;10.09;89.46;97402.84;108940;1256;60327;-79
2023/03/24 03:36:31;;;;;;;23.10;15.40;;;;;;;10.08;89.55;97398.02;108972;1256;75881;-77
2023/03/24 03:39:28;;;;;;;26.00;17.00;;;;;;;10.06;91.85;97399.62;109007;1255;71490;-78
2023/03/24 03:41:55;;;;;;;23.00;13.00;;;;;;;10.04;92.28;97400.14;108928;1256;71862;-79
2023/03/24 03:44:22;;;;;;;20.80;13.10;;;;;;;9.99;95.73;97396.95;108881;1256;59678;-77
2023/03/24 03:46:48;;;;;;;21.80;12.70;;;;;;;9.99;93.56;97400.09;108910;1256;59039;-77
2023/03/24 03:49:15;;;;;;;17.50;10.90;;;;;;;9.98;91.96;97399.28;108910;1256;59666;-79
2023/03/24 03:51:41;;;;;;;16.40;10.40;;;;;;;9.95;92.16;97395.38;108785;1258;59587;-80
2023/03/24 03:54:10;;;;;;;20.60;15.30;;;;;;;9.91;92.77;97399.71;108760;1256;59709;-77
2023/03/24 03:56:36;;;;;;;25.00;18.60;;;;;;;9.90;93.40;97397.48;108906;1256;59561;-79
2023/03/24 03:59:05;;;;;;;19.20;13.60;;;;;;;9.91;94.08;97396.40;108915;1256;59774;-77
2023/03/24 04:01:35;;;;;;;17.60;10.40;;;;;;;9.92;92.40;97398.25;108920;1256;73372;-77
2023/03/24 04:04:25;;;;;;;14.10;9.40;;;;;;;9.90;91.84;97395.55;108774;1256;71060;-79
2023/03/24 04:07:12;;;;;;;23.10;10.00;;;;;;;9.83;91.75;97397.16;108895;1256;71254;-79
2023/03/24 04:10:21;;;;;;;19.60;10.80;;;;;;;9.83;91.81;97395.21;109089;1255;58864;-79
2023/03/24 04:13:03;;;;;;;18.80;11.30;;;;;;;9.82;93.02;97396.84;108731;1256;59642;-79
2023/03/24 04:15:42;;;;;;;18.00;10.70;;;;;;;9.81;92.40;97398.80;108922;1256;73712;-77
2023/03/24 04:18:18;;;;;;;16.80;11.30;;;;;;;9.80;92.43;97398.53;108762;1255;69255;-77
2023/03/24 04:20:49;;;;;;;17.90;13.10;;;;;;;9.79;94.44;97396.28;108902;1256;72558;-79
2023/03/24 04:23:57;;;;;;;20.70;12.90;;;;;;;9.80;92.88;97400.59;108743;1261;59334;-77
2023/03/24 04:26:34;;;;;;;25.40;19.00;;;;;;;9.82;92.85;97400.52;108869;1255;59761;-77
2023/03/24 04:29:16;;;;;;;24.10;19.80;;;;;;;9.85;92.55;97400.06;108912;1256;73880;-76
2023/03/24 04:31:54;;;;;;;26.30;15.50;;;;;;;9.88;92.21;97401.95;109127;1256;71489;-79
2023/03/24 04:34:27;;;;;;;25.10;15.70;;;;;;;9.90;92.42;97401.06;109115;1256;71771;-79
2023/03/24 04:37:14;;;;;;;17.20;12.10;;;;;;;9.94;92.44;97404.56;108866;1256;59181;-77
2023/03/24 04:39:42;;;;;;;19.20;13.90;;;;;;;9.93;93.93;97407.60;108977;1256;59689;-79
2023/03/24 04:42:12;;;;;;;24.00;14.50;;;;;;;9.92;93.29;97409.83;108932;1256;73364;-77
2023/03/24 04:44:40;;;;;;;17.30;12.30;;;;;;;9.94;92.73;97408.45;108939;1256;71299;-79
2023/03/24 04:47:07;;;;;;;17.10;12.70;;;;;;;9.95;93.11;97409.03;108939;1260;71742;-77
2023/03/24 04:49:39;;;;;;;20.30;12.30;;;;;;;9.94;95.97;97408.73;108816;1258;59060;-77
2023/03/24 04:52:06;;;;;;;14.10;10.50;;;;;;;9.92;96.21;97407.28;108892;1256;59043;-79
2023/03/24 04:54:32;;;;;;;16.60;11.30;;;;;;;9.91;95.31;97407.77;108776;1256;74305;-79
2023/03/24 04:57:00;;;;;;;20.10;11.70;;;;;;;9.88;97.86;97407.31;109029;1256;71346;-77
2023/03/24 04:59:28;;;;;;;42.60;21.90;;;;;;;9.85;100.00;97407.64;109102;1257;71714;-77
2023/03/24 05:01:54;;;;;;;24.40;16.90;;;;;;;9.80;100.00;97408.44;108784;1256;59086;-79
2023/03/24 05:04:23;;;;;;;19.40;13.90;;;;;;;9.80;99.76;97413.47;108775;1261;58910;-79
2023/03/24 05:06:49;;;;;;;24.70;15.40;;;;;;;9.79;99.19;97412.23;108870;1256;74657;-77
2023/03/24 05:09:22;;;;;;;26.80;13.60;;;;;;;9.80;98.15;97412.98;108892;1256;59741;-77
2023/03/24 05:11:49;;;;;;;24.30;13.90;;;;;;;9.79;97.26;97414.24;108871;1257;71408;-77
2023/03/24 05:14:16;;;;;;;21.00;12.60;;;;;;;9.79;97.24;97416.95;108896;1255;59667;-77
2023/03/24 05:16:42;;;;;;;19.60;12.80;;;;;;;9.79;96.51;97415.70;108895;1260;59677;-77
2023/03/24 05:19:09;;;;;;;21.00;14.10;;;;;;;9.81;96.59;97415.02;108912;1256;59414;-77
2023/03/24 05:21:35;;;;;;;23.40;14.80;;;;;;;9.83;97.50;97414.80;108732;1257;70457;-77
2023/03/24 05:24:02;;;;;;;37.30;19.90;;;;;;;9.86;98.79;97416.23;108792;1256;59607;-79
2023/03/24 05:26:29;;;;;;;32.00;18.00;;;;;;;9.86;100.00;97418.82;108881;1256;59758;-79
2023/03/24 05:28:56;;;;;;;35.10;18.60;;;;;;;9.88;99.94;97415.05;109011;1256;60182;-79
2023/03/24 05:31:22;;;;;;;32.60;20.00;;;;;;;9.90;99.83;97418.70;108901;1257;59216;-77
2023/03/24 05:33:48;;;;;;;28.50;15.50;;;;;;;9.93;99.48;97417.89;108879;1258;59690;-79
2023/03/24 05:36:15;;;;;;;26.40;14.30;;;;;;;9.94;99.73;97417.54;108878;1260;59780;-79
2023/03/24 05:38:41;;;;;;;20.80;12.00;;;;;;;9.93;99.53;97416.64;108886;1256;59266;-79
2023/03/24 05:41:08;;;;;;;24.30;13.50;;;;;;;9.93;98.81;97423.23;108890;1256;59102;-79
2023/03/24 05:43:34;;;;;;;24.70;13.40;;;;;;;9.98;98.44;97422.62;108893;1256;59468;-77
2023/03/24 05:46:01;;;;;;;19.70;11.30;;;;;;;10.03;98.86;97422.46;108695;1256;59618;-79
2023/03/24 05:48:27;;;;;;;22.60;11.50;;;;;;;10.06;98.33;97422.41;108886;1255;59472;-77
2023/03/24 05:50:53;;;;;;;20.10;12.90;;;;;;;10.09;98.08;97425.68;108890;1257;59425;-77
2023/03/24 05:53:20;;;;;;;20.00;13.40;;;;;;;10.14;98.39;97424.09;108880;1260;59105;-77
2023/03/24 05:55:46;;;;;;;20.80;14.30;;;;;;;10.17;99.16;97420.54;108889;1257;59646;-79
2023/03/24 05:58:14;;;;;;;24.50;15.60;;;;;;;10.22;99.37;97424.50;108780;1256;59687;-77
2023/03/24 06:00:41;;;;;;;22.40;15.30;;;;;;;10.24;99.87;97423.39;108889;1257;71826;-77
2023/03/24 06:03:07;;;;;;;32.40;16.90;;;;;;;10.27;99.13;97431.38;108812;1257;59693;-79
2023/03/24 06:05:33;;;;;;;28.30;18.70;;;;;;;10.30;98.93;97425.98;108865;1257;59297;-77
2023/03/24 06:08:00;;;;;;;22.60;15.30;;;;;;;10.32;99.01;97426.91;108805;1258;59131;-77
2023/03/24 06:10:27;;;;;;;26.80;18.20;;;;;;;10.32;98.66;97430.34;108802;1259;59524;-81
2023/03/24 06:12:54;;;;;;;25.20;16.80;;;;;;;10.35;98.83;97428.52;108886;1257;59667;-77
2023/03/24 06:15:23;;;;;;;27.50;18.70;;;;;;;10.32;99.16;97432.38;108880;1257;59751;-76
2023/03/24 06:17:49;;;;;;;22.70;15.60;;;;;;;10.31;99.81;97431.09;108865;1256;60047;-77
2023/03/24 06:20:17;;;;;;;23.60;15.90;;;;;;;10.32;99.63;97434.76;108909;1257;59169;-77
2023/03/24 06:22:46;;;;;;;29.10;19.30;;;;;;;10.33;100.00;97432.14;108938;1256;70102;-77
2023/03/24 06:25:14;;;;;;;26.00;17.20;;;;;;;10.35;100.00;97434.84;108870;1256;70690;-77
2023/03/24 06:27:46;;;;;;;23.40;15.80;;;;;;;10.35;100.00;97436.09;108841;1257;59785;-77
2023/03/24 06:30:14;;;;;;;23.90;15.70;;;;;;;10.33;100.00;97434.30;108839;1259;60184;-77
2023/03/24 06:32:42;;;;;;;28.00;17.20;;;;;;;10.33;100.00;97432.59;109014;1256;74537;-79
2023/03/24 06:35:08;;;;;;;30.50;20.10;;;;;;;10.34;100.00;97432.96;108709;1257;69626;-79
2023/03/24 06:37:35;;;;;;;57.10;34.00;;;;;;;10.37;100.00;97434.64;108632;1258;72437;-79
2023/03/24 06:40:03;;;;;;;43.10;30.50;;;;;;;10.42;100.00;97430.90;108846;1258;59927;-77
2023/03/24 06:42:30;;;;;;;37.80;27.80;;;;;;;10.47;100.00;97427.15;108942;1256;59323;-77
2023/03/24 06:44:56;;;;;;;43.90;28.20;;;;;;;10.52;100.00;97429.89;108940;1254;59257;-77
2023/03/24 06:47:23;;;;;;;41.70;30.20;;;;;;;10.56;100.00;97428.52;108632;1257;59678;-80
2023/03/24 06:49:49;;;;;;;49.70;33.60;;;;;;;10.59;100.00;97423.88;108717;1256;60000;-77
2023/03/24 06:52:16;;;;;;;51.20;36.50;;;;;;;10.65;100.00;97423.19;108829;1256;60995;-79
2023/03/24 06:54:42;;;;;;;58.80;39.40;;;;;;;10.74;100.00;97420.88;108802;1259;59325;-79
2023/03/24 06:57:09;;;;;;;66.10;48.40;;;;;;;10.80;100.00;97421.67;108808;1256;59151;-77
2023/03/24 06:59:35;;;;;;;60.70;44.10;;;;;;;10.81;100.00;97420.98;108832;1256;59448;-79
2023/03/24 07:02:01;;;;;;;46.60;32.30;;;;;;;10.90;100.00;97424.09;108775;1257;59360;-77
2023/03/24 07:04:35;;;;;;;44.00;30.70;;;;;;;10.95;100.00;97425.27;108826;1257;59743;-77
2023/03/24 07:07:02;;;;;;;51.00;34.70;;;;;;;11.01;100.00;97427.27;108873;1256;60209;-79
2023/03/24 07:09:29;;;;;;;49.30;35.80;;;;;;;11.10;100.00;97429.62;108741;1257;74703;-78
2023/03/24 07:11:55;;;;;;;45.00;30.90;;;;;;;11.18;100.00;97437.13;108801;1256;70445;-77
2023/03/24 07:14:25;;;;;;;46.80;32.10;;;;;;;11.27;100.00;97432.25;108791;1257;59110;-77
2023/03/24 07:16:52;;;;;;;44.70;30.90;;;;;;;11.35;100.00;97433.09;108833;1257;59749;-79
2023/03/24 07:19:18;;;;;;;37.90;29.30;;;;;;;11.46;100.00;97426.71;108796;1257;60147;-77
2023/03/24 07:21:48;;;;;;;45.50;28.90;;;;;;;11.56;100.00;97427.23;108871;1257;59705;-77
2023/03/24 07:24:16;;;;;;;44.60;30.30;;;;;;;11.70;100.00;97422.08;108785;1258;71385;-77
2023/03/24 07:26:43;;;;;;;44.90;29.90;;;;;;;11.81;100.00;97424.21;108745;1256;71596;-79
2023/03/24 07:29:09;;;;;;;44.60;30.60;;;;;;;11.92;100.00;97423.41;108622;1258;59407;-80
2023/03/24 07:31:37;;;;;;;49.70;33.50;;;;;;;12.06;100.00;97423.20;108148;1257;62218;-77
2023/03/24 07:34:07;;;;;;;48.00;33.10;;;;;;;12.20;100.00;97420.61;108832;1258;74544;-80
2023/03/24 07:36:33;;;;;;;45.20;32.40;;;;;;;12.32;100.00;97415.33;108735;1257;72405;-79
2023/03/24 07:38:59;;;;;;;47.30;30.40;;;;;;;12.49;100.00;97409.70;108845;1256;59633;-79
2023/03/24 07:41:28;;;;;;;37.50;24.70;;;;;;;12.68;100.00;97404.33;108773;1257;60503;-78
2023/03/24 07:43:54;;;;;;;29.70;20.90;;;;;;;12.86;100.00;97399.30;108685;1254;60400;-77
2023/03/24 07:46:21;;;;;;;30.40;20.20;;;;;;;13.06;100.00;97390.70;108765;1258;74433;-79
2023/03/24 07:48:47;;;;;;;25.70;18.40;;;;;;;13.41;100.00;97383.57;108614;1262;59492;-77
2023/03/24 07:51:14;;;;;;;32.30;20.50;;;;;;;13.83;100.00;97383.38;108645;1257;59502;-77
2023/03/24 07:53:40;;;;;;;25.40;17.50;;;;;;;14.14;100.00;97381.72;108246;1257;59520;-80
2023/03/24 07:56:06;;;;;;;30.10;17.70;;;;;;;14.43;100.00;97386.54;108730;1256;59367;-77
2023/03/24 07:58:33;;;;;;;20.70;14.60;;;;;;;14.73;100.00;97382.71;108500;1257;59156;-80
2023/03/24 08:00:59;;;;;;;23.40;15.80;;;;;;;15.19;100.00;97382.23;108601;1257;60090;-77
2023/03/24 08:03:26;;;;;;;19.10;14.20;;;;;;;15.44;100.00;97378.53;108799;1257;59141;-77
2023/03/24 08:05:54;;;;;;;32.00;19.50;;;;;;;15.82;100.00;97374.20;108830;1256;59828;-77
2023/03/24 08:08:20;;;;;;;21.60;14.70;;;;;;;16.06;99.59;97357.95;108686;1255;59798;-78
2023/03/24 08:10:48;;;;;;;25.30;15.50;;;;;;;16.57;99.30;97352.70;108675;1257;59750;-78
2023/03/24 08:13:15;;;;;;;22.60;15.50;;;;;;;17.33;98.39;97342.05;108238;1257;73489;-80
2023/03/24 08:15:42;;;;;;;30.90;25.80;;;;;;;18.08;97.71;97332.96;108615;1256;71416;-77
2023/03/24 08:18:08;;;;;;;17.70;15.40;;;;;;;18.50;91.07;97329.44;108610;1257;60087;-77
2023/03/24 08:20:35;;;;;;;30.90;23.30;;;;;;;18.78;91.70;97324.60;108633;1255;59740;-79
2023/03/24 08:23:03;;;;;;;38.60;23.90;;;;;;;19.21;90.82;97320.60;108785;1256;74873;-79
2023/03/24 08:25:30;;;;;;;21.50;14.10;;;;;;;19.16;89.11;97313.56;108843;1257;71859;-77
2023/03/24 08:27:56;;;;;;;21.20;13.90;;;;;;;19.11;89.37;97306.39;108476;1256;72125;-77
2023/03/24 08:30:23;;;;;;;21.80;16.90;;;;;;;19.09;84.42;97295.88;108612;1256;59063;-77
2023/03/24 08:32:55;;;;;;;15.70;13.10;;;;;;;19.43;84.41;97285.77;108854;1254;59338;-80
2023/03/24 08:35:24;;;;;;;19.30;13.20;;;;;;;19.83;84.71;97281.80;108908;1257;73999;-79
2023/03/24 08:37:50;;;;;;;12.60;9.40;;;;;;;20.28;81.87;97280.13;108695;1255;70309;-80
2023/03/24 08:40:19;;;;;;;12.30;8.30;;;;;;;20.75;79.18;97277.96;108613;1256;72883;-80
2023/03/24 08:42:50;;;;;;;8.50;7.70;;;;;;;21.16;72.43;97276.76;108520;1255;59171;-80
2023/03/24 08:45:19;;;;;;;10.90;6.50;;;;;;;20.98;72.26;97277.52;108652;1254;59570;-80
2023/03/24 08:47:47;;;;;;;9.30;6.20;;;;;;;20.93;67.80;97272.95;108215;1257;74875;-80
2023/03/24 08:50:15;;;;;;;7.70;6.00;;;;;;;21.07;69.00;97266.44;108949;1256;70751;-80
2023/03/24 08:52:41;;;;;;;12.10;8.20;;;;;;;21.04;67.34;97263.39;108892;1254;59559;-80
2023/03/24 08:55:08;;;;;;;8.70;7.00;;;;;;;21.00;64.61;97263.16;108869;1259;59653;-77
2023/03/24 08:57:35;;;;;;;9.80;6.40;;;;;;;20.97;65.80;97259.27;108872;1254;60669;-77
2023/03/24 09:00:08;;;;;;;9.10;5.90;;;;;;;20.94;62.89;97256.52;108881;1254;59699;-77
2023/03/24 09:02:35;;;;;;;8.70;6.10;;;;;;;20.59;58.19;97255.23;108928;1254;69488;-79
2023/03/24 09:05:01;;;;;;;8.90;6.00;;;;;;;20.38;59.25;97255.67;108908;1254;59470;-77
2023/03/24 09:07:28;;;;;;;6.10;5.20;;;;;;;20.11;57.86;97241.19;108860;1254;59055;-80
2023/03/24 09:09:54;;;;;;;8.50;5.50;;;;;;;20.15;57.58;97241.65;108719;1258;59524;-80
2023/03/24 09:12:21;;;;;;;10.90;5.60;;;;;;;20.10;56.74;97233.70;108658;1256;61139;-77
2023/03/24 09:14:48;;;;;;;13.60;9.10;;;;;;;20.04;53.58;97231.75;108636;1259;59312;-77
2023/03/24 09:17:15;;;;;;;9.50;6.70;;;;;;;19.83;55.98;97224.16;108627;1255;74107;-80
2023/03/24 09:19:43;;;;;;;10.50;6.00;;;;;;;19.91;56.63;97219.08;108825;1254;59346;-80
2023/03/24 09:22:10;;;;;;;7.50;5.00;;;;;;;20.04;55.88;97216.52;108834;1257;59334;-77
2023/03/24 09:24:36;;;;;;;9.60;6.70;;;;;;;20.07;56.23;97211.79;108883;1255;76037;-77
2023/03/24 09:27:03;;;;;;;7.00;4.50;;;;;;;20.08;55.10;97216.29;108697;1256;71200;-77
2023/03/24 09:29:30;;;;;;;8.70;4.60;;;;;;;20.17;49.98;97204.70;108714;1256;71946;-77
2023/03/24 09:31:56;;;;;;;4.40;3.50;;;;;;;20.15;48.62;97204.64;108570;1254;59089;-77
2023/03/24 09:34:23;;;;;;;4.70;3.80;;;;;;;20.12;46.92;97199.71;108848;1255;59588;-80
2023/03/24 09:36:49;;;;;;;8.20;4.80;;;;;;;20.09;47.31;97193.60;108841;1255;73691;-80
2023/03/24 09:39:16;;;;;;;6.70;3.20;;;;;;;20.23;46.56;97195.77;108876;1254;70937;-77
2023/03/24 09:41:44;;;;;;;6.30;3.40;;;;;;;20.40;44.92;97193.73;108800;1255;72222;-80
2023/03/24 09:44:30;;;;;;;7.30;3.70;;;;;;;20.51;44.21;97186.37;108887;1255;59372;-77
2023/03/24 09:47:00;;;;;;;5.30;3.00;;;;;;;20.67;43.58;97188.93;108825;1254;60351;-80
2023/03/24 09:49:28;;;;;;;5.00;3.10;;;;;;;20.80;42.27;97178.48;108745;1256;75217;-77
2023/03/24 09:52:05;;;;;;;5.20;3.60;;;;;;;20.93;42.66;97176.11;108723;1256;70341;-77
2023/03/24 09:54:47;;;;;;;3.90;2.90;;;;;;;21.11;41.29;97169.40;108559;1257;72680;-80
2023/03/24 09:57:18;;;;;;;3.90;2.30;;;;;;;21.03;41.67;97168.02;108733;1255;59738;-77
2023/03/24 09:59:45;;;;;;;4.60;3.30;;;;;;;21.11;40.17;97163.73;108901;1254;61402;-77
2023/03/24 10:02:12;;;;;;;7.00;4.10;;;;;;;21.11;39.22;97160.41;108764;1256;59035;-80
2023/03/24 10:04:39;;;;;;;4.90;2.70;;;;;;;21.09;39.71;97154.97;109066;1256;69868;-80
2023/03/24 10:07:32;;;;;;;8.70;5.40;;;;;;;21.19;38.72;97156.46;108870;1256;59382;-77
2023/03/24 10:09:59;;;;;;;5.80;3.00;;;;;;;21.18;38.46;97160.62;108935;1255;59108;-80
2023/03/24 10:12:35;;;;;;;8.10;4.20;;;;;;;21.12;38.62;97156.90;108877;1255;60319;-77
2023/03/24 10:15:30;;;;;;;5.30;2.90;;;;;;;21.14;38.45;97158.27;108871;1255;72906;-77
2023/03/24 10:18:21;;;;;;;3.90;2.30;;;;;;;21.15;38.46;97152.07;108740;1256;71762;-77
2023/03/24 10:20:51;;;;;;;4.80;3.10;;;;;;;21.19;38.11;97150.09;108826;1254;72034;-77
2023/03/24 10:23:24;;;;;;;5.30;3.50;;;;;;;21.20;38.12;97150.50;108709;1256;59303;-80
2023/03/24 10:25:52;;;;;;;6.60;2.80;;;;;;;21.25;37.73;97149.89;108647;1258;60121;-80
2023/03/24 10:28:40;;;;;;;5.60;2.90;;;;;;;21.21;37.47;97148.31;108636;1254;73910;-80
2023/03/24 10:31:11;;;;;;;5.40;3.90;;;;;;;21.20;37.79;97146.00;108845;1256;70668;-77
2023/03/24 10:33:41;;;;;;;5.20;2.80;;;;;;;21.14;37.28;97144.51;108862;1255;73720;-80
2023/03/24 10:36:16;;;;;;;2.90;2.10;;;;;;;21.08;37.10;97147.88;108782;1256;59760;-77
2023/03/24 10:38:43;;;;;;;4.50;2.60;;;;;;;20.99;37.19;97147.65;108744;1256;60273;-80
2023/03/24 10:41:14;;;;;;;10.80;7.70;;;;;;;20.94;37.16;97142.21;108851;1256;75743;-80
2023/03/24 10:43:41;;;;;;;5.80;3.30;;;;;;;20.81;37.76;97141.37;108677;1257;69257;-77
2023/03/24 10:46:07;;;;;;;4.90;2.80;;;;;;;20.83;37.77;97145.64;108625;1256;73034;-80
2023/03/24 10:48:48;;;;;;;6.30;3.30;;;;;;;20.79;37.75;97141.11;108583;1256;60803;-78
2023/03/24 10:51:25;;;;;;;6.70;2.90;;;;;;;20.79;38.04;97144.88;108731;1256;60118;-77
2023/03/24 10:54:12;;;;;;;6.40;2.90;;;;;;;20.78;37.82;97136.60;108950;1256;74629;-80
2023/03/24 10:56:40;;;;;;;6.10;2.90;;;;;;;20.81;38.03;97139.80;108970;1254;69921;-81
2023/03/24 10:59:26;;;;;;;5.50;3.30;;;;;;;20.81;37.74;97134.77;108983;1255;72003;-80
2023/03/24 11:02:08;;;;;;;6.30;2.90;;;;;;;20.66;37.26;97135.29;109026;1254;58971;-77
2023/03/24 11:04:39;;;;;;;5.20;2.80;;;;;;;20.57;37.59;97137.65;108810;1256;59844;-76
2023/03/24 11:07:21;;;;;;;4.60;3.20;;;;;;;20.51;38.27;97134.27;108854;1255;74063;-79
2023/03/24 11:09:59;;;;;;;5.10;2.90;;;;;;;20.57;38.51;97133.02;108701;1256;71487;-77
2023/03/24 11:12:30;;;;;;;10.30;4.90;;;;;;;20.63;37.69;97123.38;108793;1256;73276;-77
2023/03/24 11:15:12;;;;;;;5.40;3.90;;;;;;;20.62;38.18;97126.88;108871;1256;59096;-77
2023/03/24 11:17:39;;;;;;;4.50;3.00;;;;;;;20.69;38.77;97120.02;109014;1256;59871;-80
2023/03/24 11:20:20;;;;;;;8.20;3.50;;;;;;;20.77;38.44;97124.80;108834;1255;59173;-80
2023/03/24 11:22:58;;;;;;;3.80;2.50;;;;;;;20.85;38.01;97121.38;108583;1256;72062;-80
2023/03/24 11:25:30;;;;;;;4.10;2.40;;;;;;;20.90;38.24;97114.61;108768;1256;72677;-77
2023/03/24 11:28:01;;;;;;;4.20;2.50;;;;;;;21.03;38.26;97113.25;108927;1256;59200;-80
2023/03/24 11:30:32;;;;;;;4.40;3.00;;;;;;;21.14;37.47;97109.73;108949;1256;59608;-79
2023/03/24 11:32:59;;;;;;;3.30;2.30;;;;;;;21.16;37.12;97105.27;108849;1256;74856;-79